createdAt,value
2023-02-08T00:00:32.493Z,1038.06
2023-02-08T00:01:32.429Z,1038.08
2023-02-08T00:02:32.405Z,1038.06
2023-02-08T00:03:32.294Z,1038.07
2023-02-08T00:04:32.206Z,1038.07
2023-02-08T00:05:32.129Z,1038.08
2023-02-08T00:06:32.055Z,1038.09
2023-02-08T00:07:31.986Z,1038.11
2023-02-08T00:08:31.916Z,1038.10
2023-02-08T00:09:31.843Z,1038.10
2023-02-08T00:10:31.780Z,1038.11
2023-02-08T00:11:31.694Z,1038.07
2023-02-08T00:12:31.614Z,1038.04
2023-02-08T00:13:31.552Z,1037.99
2023-02-08T00:14:31.467Z,1037.99
2023-02-08T00:15:31.399Z,1038.00
2023-02-08T00:16:31.321Z,1037.96
2023-02-08T00:17:31.252Z,1037.93
2023-02-08T00:18:31.188Z,1037.93
2023-02-08T00:19:31.111Z,1037.97
2023-02-08T00:20:31.037Z,1037.94
2023-02-08T00:21:30.960Z,1037.92
2023-02-08T00:22:30.889Z,1037.92
2023-02-08T00:23:30.878Z,1037.95
2023-02-08T00:24:30.737Z,1037.91
2023-02-08T00:25:30.664Z,1037.93
2023-02-08T00:26:30.590Z,1037.90
2023-02-08T00:27:30.528Z,1037.91
2023-02-08T00:28:30.506Z,1037.96
2023-02-08T00:29:30.375Z,1037.97
2023-02-08T00:30:30.303Z,1037.99
2023-02-08T00:31:30.328Z,1037.96
2023-02-08T00:32:30.152Z,1037.98
2023-02-08T00:33:30.092Z,1037.92
2023-02-08T00:34:30.001Z,1037.95
2023-02-08T00:35:29.932Z,1037.99
2023-02-08T00:36:29.863Z,1037.99
2023-02-08T00:37:29.779Z,1037.98
2023-02-08T00:38:29.706Z,1038.01
2023-02-08T00:39:29.636Z,1037.97
2023-02-08T00:40:29.554Z,1037.97
2023-02-08T00:41:29.488Z,1037.94
2023-02-08T00:42:29.415Z,1037.93
2023-02-08T00:43:29.343Z,1037.92
2023-02-08T00:44:29.276Z,1037.86
2023-02-08T00:45:29.186Z,1037.93
2023-02-08T00:46:29.139Z,1037.88
2023-02-08T00:47:29.041Z,1037.89
2023-02-08T00:48:28.967Z,1037.89
2023-02-08T00:49:28.891Z,1037.93
2023-02-08T00:50:28.826Z,1037.90
2023-02-08T00:51:28.753Z,1037.91
2023-02-08T00:52:28.676Z,1037.90
2023-02-08T00:53:28.606Z,1037.86
2023-02-08T00:54:28.526Z,1037.89
2023-02-08T00:55:28.455Z,1037.92
2023-02-08T00:56:28.380Z,1037.97
2023-02-08T00:57:28.313Z,1037.98
2023-02-08T00:58:28.238Z,1038.00
2023-02-08T00:59:28.159Z,1037.97
2023-02-08T01:00:28.147Z,1037.98
2023-02-08T01:01:28.015Z,1038.00
2023-02-08T01:02:27.940Z,1037.96
2023-02-08T01:03:27.859Z,1038.04
2023-02-08T01:04:27.799Z,1038.01
2023-02-08T01:05:27.713Z,1038.06
2023-02-08T01:06:27.643Z,1038.06
2023-02-08T01:07:27.566Z,1038.02
2023-02-08T01:08:27.531Z,1038.01
2023-02-08T01:09:27.424Z,1037.99
2023-02-08T01:10:27.346Z,1037.96
2023-02-08T01:11:27.287Z,1037.99
2023-02-08T01:12:27.204Z,1037.98
2023-02-08T01:13:27.126Z,1037.96
2023-02-08T01:14:27.055Z,1037.97
2023-02-08T01:15:26.979Z,1037.92
2023-02-08T01:16:26.967Z,1037.93
2023-02-08T01:17:26.832Z,1037.94
2023-02-08T01:18:26.757Z,1037.91
2023-02-08T01:19:26.690Z,1037.95
2023-02-08T01:20:26.612Z,1037.93
2023-02-08T01:21:26.539Z,1037.92
2023-02-08T01:22:26.469Z,1037.92
2023-02-08T01:23:26.400Z,1037.99
2023-02-08T01:24:26.339Z,1037.96
2023-02-08T01:25:26.237Z,1037.98
2023-02-08T01:26:26.172Z,1037.96
2023-02-08T01:27:26.104Z,1037.96
2023-02-08T01:28:26.070Z,1037.92
2023-02-08T01:29:25.946Z,1037.96
2023-02-08T01:30:25.979Z,1037.94
2023-02-08T01:31:25.837Z,1037.90
2023-02-08T01:32:25.729Z,1037.86
2023-02-08T01:33:25.667Z,1037.89
2023-02-08T01:34:25.578Z,1037.91
2023-02-08T01:35:25.526Z,1037.89
2023-02-08T01:36:25.430Z,1037.89
2023-02-08T01:37:25.399Z,1037.92
2023-02-08T01:38:25.296Z,1037.90
2023-02-08T01:39:25.209Z,1037.87
2023-02-08T01:40:25.146Z,1037.89
2023-02-08T01:41:25.058Z,1037.87
2023-02-08T01:42:24.988Z,1037.85
2023-02-08T01:43:24.910Z,1037.87
2023-02-08T01:44:24.837Z,1037.87
2023-02-08T01:45:24.794Z,1037.85
2023-02-08T01:46:24.701Z,1037.84
2023-02-08T01:47:24.615Z,1037.82
2023-02-08T01:48:24.552Z,1037.82
2023-02-08T01:49:24.468Z,1037.78
2023-02-08T01:50:24.396Z,1037.80
2023-02-08T01:51:24.324Z,1037.80
2023-02-08T01:52:24.248Z,1037.78
2023-02-08T01:53:24.180Z,1037.77
2023-02-08T01:54:24.114Z,1037.79
2023-02-08T01:55:24.023Z,1037.80
2023-02-08T01:56:23.954Z,1037.80
2023-02-08T01:57:23.886Z,1037.79
2023-02-08T01:58:23.803Z,1037.80
2023-02-08T01:59:23.758Z,1037.80
2023-02-08T02:00:23.653Z,1037.80
2023-02-08T02:01:23.629Z,1037.83
2023-02-08T02:02:23.517Z,1037.84
2023-02-08T02:03:23.439Z,1037.83
2023-02-08T02:04:23.379Z,1037.85
2023-02-08T02:05:23.288Z,1037.82
2023-02-08T02:06:23.402Z,1037.81
2023-02-08T02:07:23.148Z,1037.77
2023-02-08T02:08:23.063Z,1037.75
2023-02-08T02:09:22.997Z,1037.77
2023-02-08T02:10:22.938Z,1037.73
2023-02-08T02:11:22.848Z,1037.72
2023-02-08T02:12:22.770Z,1037.77
2023-02-08T02:13:22.713Z,1037.74
2023-02-08T02:14:22.619Z,1037.73
2023-02-08T02:15:22.545Z,1037.75
2023-02-08T02:16:22.513Z,1037.74
2023-02-08T02:17:22.400Z,1037.78
2023-02-08T02:18:22.339Z,1037.78
2023-02-08T02:19:22.250Z,1037.81
2023-02-08T02:20:22.179Z,1037.76
2023-02-08T02:21:22.118Z,1037.81
2023-02-08T02:22:22.039Z,1037.78
2023-02-08T02:23:21.961Z,1037.81
2023-02-08T02:24:21.880Z,1037.83
2023-02-08T02:25:21.812Z,1037.86
2023-02-08T02:26:21.736Z,1037.90
2023-02-08T02:27:21.665Z,1037.93
2023-02-08T02:28:21.657Z,1037.94
2023-02-08T02:29:21.508Z,1037.89
2023-02-08T02:30:21.436Z,1037.88
2023-02-08T02:31:21.457Z,1037.88
2023-02-08T02:32:21.386Z,1037.86
2023-02-08T02:33:21.215Z,1037.83
2023-02-08T02:34:21.150Z,1037.84
2023-02-08T02:35:21.076Z,1037.77
2023-02-08T02:36:20.995Z,1037.80
2023-02-08T02:37:20.915Z,1037.84
2023-02-08T02:38:20.848Z,1037.84
2023-02-08T02:39:20.775Z,1037.83
2023-02-08T02:40:20.701Z,1037.85
2023-02-08T02:41:20.624Z,1037.82
2023-02-08T02:42:20.560Z,1037.85
2023-02-08T02:43:20.470Z,1037.83
2023-02-08T02:44:20.407Z,1037.83
2023-02-08T02:46:20.253Z,1037.84
2023-02-08T02:47:20.183Z,1037.86
2023-02-08T02:48:20.110Z,1037.83
2023-02-08T02:49:20.033Z,1037.85
2023-02-08T02:50:19.962Z,1037.86
2023-02-08T02:51:19.886Z,1037.84
2023-02-08T02:52:19.820Z,1037.84
2023-02-08T02:53:19.742Z,1037.90
2023-02-08T02:54:19.698Z,1037.89
2023-02-08T02:55:19.590Z,1037.90
2023-02-08T02:56:19.518Z,1037.90
2023-02-08T02:57:19.440Z,1037.88
2023-02-08T02:58:19.368Z,1037.88
2023-02-08T02:59:19.293Z,1037.87
2023-02-08T03:00:19.224Z,1037.85
2023-02-08T03:01:19.183Z,1037.82
2023-02-08T03:02:19.072Z,1037.86
2023-02-08T03:03:19.004Z,1037.84
2023-02-08T03:04:18.938Z,1037.82
2023-02-08T03:05:18.846Z,1037.86
2023-02-08T03:06:18.793Z,1037.87
2023-02-08T03:07:18.704Z,1037.85
2023-02-08T03:08:18.630Z,1037.83
2023-02-08T03:09:18.560Z,1037.82
2023-02-08T03:10:18.485Z,1037.79
2023-02-08T03:11:18.418Z,1037.80
2023-02-08T03:12:18.334Z,1037.83
2023-02-08T03:13:18.257Z,1037.81
2023-02-08T03:14:18.744Z,1037.84
2023-02-08T03:15:18.109Z,1037.82
2023-02-08T03:16:18.136Z,1037.81
2023-02-08T03:17:17.962Z,1037.83
2023-02-08T03:18:17.889Z,1037.82
2023-02-08T03:19:17.822Z,1037.79
2023-02-08T03:20:17.741Z,1037.79
2023-02-08T03:21:17.678Z,1037.88
2023-02-08T03:22:17.645Z,1037.91
2023-02-08T03:23:17.518Z,1037.86
2023-02-08T03:24:17.447Z,1037.91
2023-02-08T03:25:17.368Z,1037.89
2023-02-08T03:26:17.300Z,1037.91
2023-02-08T03:27:17.218Z,1037.96
2023-02-08T03:28:17.173Z,1037.94
2023-02-08T03:29:17.082Z,1037.94
2023-02-08T03:30:16.996Z,1037.96
2023-02-08T03:31:17.014Z,1037.95
2023-02-08T03:32:16.859Z,1037.94
2023-02-08T03:33:16.775Z,1037.94
2023-02-08T03:34:16.701Z,1037.92
2023-02-08T03:35:16.639Z,1037.96
2023-02-08T03:36:16.558Z,1037.90
2023-02-08T03:37:16.516Z,1037.89
2023-02-08T03:38:16.409Z,1037.88
2023-02-08T03:39:16.328Z,1037.95
2023-02-08T03:40:16.318Z,1037.97
2023-02-08T03:41:16.228Z,1037.94
2023-02-08T03:42:16.124Z,1037.89
2023-02-08T03:43:16.045Z,1037.92
2023-02-08T03:44:15.959Z,1037.93
2023-02-08T03:45:16.749Z,1037.94
2023-02-08T03:46:15.842Z,1037.94
2023-02-08T03:47:15.735Z,1037.93
2023-02-08T03:48:15.671Z,1037.92
2023-02-08T03:49:15.587Z,1037.96
2023-02-08T03:50:15.526Z,1037.94
2023-02-08T03:51:15.441Z,1037.94
2023-02-08T03:52:15.371Z,1037.93
2023-02-08T03:53:15.331Z,1037.96
2023-02-08T03:54:15.221Z,1037.95
2023-02-08T03:55:15.142Z,1037.94
2023-02-08T03:56:15.069Z,1037.94
2023-02-08T03:57:14.993Z,1037.95
2023-02-08T03:58:14.918Z,1037.95
2023-02-08T03:59:14.846Z,1037.99
2023-02-08T04:00:14.795Z,1037.97
2023-02-08T04:01:14.733Z,1037.98
2023-02-08T04:02:14.654Z,1037.98
2023-02-08T04:03:14.546Z,1037.93
2023-02-08T04:04:14.475Z,1037.96
2023-02-08T04:05:14.401Z,1037.94
2023-02-08T04:06:14.360Z,1037.97
2023-02-08T04:07:14.247Z,1038.00
2023-02-08T04:08:14.172Z,1037.97
2023-02-08T04:09:14.098Z,1037.98
2023-02-08T04:10:14.022Z,1037.98
2023-02-08T04:11:13.951Z,1037.97
2023-02-08T04:12:13.877Z,1037.96
2023-02-08T04:13:13.820Z,1037.93
2023-02-08T04:14:13.727Z,1037.94
2023-02-08T04:15:13.656Z,1037.91
2023-02-08T04:16:13.592Z,1037.96
2023-02-08T04:17:13.507Z,1037.93
2023-02-08T04:18:13.444Z,1037.93
2023-02-08T04:19:13.366Z,1037.93
2023-02-08T04:20:13.302Z,1037.90
2023-02-08T04:21:13.205Z,1037.90
2023-02-08T04:22:13.159Z,1037.90
2023-02-08T04:23:13.060Z,1037.93
2023-02-08T04:24:12.992Z,1037.90
2023-02-08T04:25:12.909Z,1037.95
2023-02-08T04:26:12.843Z,1037.93
2023-02-08T04:27:13.745Z,1037.93
2023-02-08T04:28:12.714Z,1037.97
2023-02-08T04:29:12.627Z,1037.96
2023-02-08T04:30:12.543Z,1037.94
2023-02-08T04:31:12.571Z,1037.95
2023-02-08T04:32:12.393Z,1037.93
2023-02-08T04:33:12.317Z,1037.93
2023-02-08T04:34:12.252Z,1037.91
2023-02-08T04:35:12.171Z,1037.91
2023-02-08T04:36:12.112Z,1037.92
2023-02-08T04:37:12.034Z,1037.90
2023-02-08T04:38:11.954Z,1037.93
2023-02-08T04:39:11.880Z,1037.91
2023-02-08T04:40:12.764Z,1037.89
2023-02-08T04:41:11.729Z,1037.92
2023-02-08T04:42:11.657Z,1037.91
2023-02-08T04:43:11.581Z,1037.90
2023-02-08T04:44:11.506Z,1037.93
2023-02-08T04:45:11.434Z,1037.92
2023-02-08T04:46:11.368Z,1037.90
2023-02-08T04:47:11.282Z,1037.91
2023-02-08T04:48:12.058Z,1037.90
2023-02-08T04:49:11.140Z,1037.92
2023-02-08T04:50:11.070Z,1037.91
2023-02-08T04:51:10.984Z,1037.93
2023-02-08T04:52:10.928Z,1037.92
2023-02-08T04:53:11.756Z,1037.92
2023-02-08T04:54:10.769Z,1037.94
2023-02-08T04:56:10.620Z,1037.94
2023-02-08T04:57:10.547Z,1037.89
2023-02-08T04:58:10.483Z,1037.86
2023-02-08T04:59:10.389Z,1037.88
2023-02-08T05:00:10.318Z,1037.87
2023-02-08T05:01:10.263Z,1037.90
2023-02-08T05:02:10.167Z,1037.86
2023-02-08T05:03:10.099Z,1037.91
2023-02-08T05:04:10.021Z,1037.90
2023-02-08T05:05:10.823Z,1037.91
2023-02-08T05:06:09.889Z,1037.93
2023-02-08T05:07:09.794Z,1037.95
2023-02-08T05:08:09.728Z,1037.94
2023-02-08T05:09:09.646Z,1037.94
2023-02-08T05:10:09.568Z,1037.94
2023-02-08T05:11:09.502Z,1037.92
2023-02-08T05:12:09.422Z,1037.92
2023-02-08T05:13:10.266Z,1037.94
2023-02-08T05:14:09.272Z,1037.96
2023-02-08T05:15:09.203Z,1037.94
2023-02-08T05:16:09.185Z,1037.96
2023-02-08T05:17:09.055Z,1037.92
2023-02-08T05:18:08.973Z,1037.92
2023-02-08T05:19:08.907Z,1037.90
2023-02-08T05:20:08.829Z,1037.90
2023-02-08T05:21:08.750Z,1037.88
2023-02-08T05:22:08.696Z,1037.91
2023-02-08T05:23:08.601Z,1037.93
2023-02-08T05:24:08.535Z,1037.89
2023-02-08T05:25:09.263Z,1037.87
2023-02-08T05:26:08.376Z,1037.88
2023-02-08T05:27:08.325Z,1037.86
2023-02-08T05:28:08.257Z,1037.87
2023-02-08T05:29:08.157Z,1037.88
2023-02-08T05:30:08.104Z,1037.88
2023-02-08T05:31:08.099Z,1037.90
2023-02-08T05:32:07.933Z,1037.92
2023-02-08T05:33:07.858Z,1037.91
2023-02-08T05:34:07.785Z,1037.92
2023-02-08T05:35:07.721Z,1037.92
2023-02-08T05:36:07.643Z,1037.95
2023-02-08T05:37:07.571Z,1037.93
2023-02-08T05:38:07.483Z,1037.94
2023-02-08T05:39:07.409Z,1037.96
2023-02-08T05:40:07.348Z,1037.98
2023-02-08T05:41:07.262Z,1037.93
2023-02-08T05:42:07.200Z,1038.00
2023-02-08T05:43:07.109Z,1038.00
2023-02-08T05:44:07.033Z,1038.05
2023-02-08T05:45:06.988Z,1038.01
2023-02-08T05:46:06.883Z,1038.03
2023-02-08T05:47:06.859Z,1038.05
2023-02-08T05:48:06.741Z,1038.03
2023-02-08T05:49:06.661Z,1038.04
2023-02-08T05:50:06.594Z,1038.03
2023-02-08T05:51:06.515Z,1038.02
2023-02-08T05:52:06.440Z,1038.04
2023-02-08T05:53:06.364Z,1038.07
2023-02-08T05:54:06.288Z,1038.06
2023-02-08T05:55:06.220Z,1038.08
2023-02-08T05:56:06.146Z,1038.04
2023-02-08T05:57:06.083Z,1038.04
2023-02-08T05:58:05.987Z,1038.08
2023-02-08T05:59:05.916Z,1038.08
2023-02-08T06:00:05.841Z,1038.03
2023-02-08T06:01:05.791Z,1038.08
2023-02-08T06:02:05.694Z,1038.05
2023-02-08T06:03:05.714Z,1038.08
2023-02-08T06:04:05.565Z,1038.10
2023-02-08T06:05:05.472Z,1038.13
2023-02-08T06:06:05.396Z,1038.11
2023-02-08T06:07:05.326Z,1038.11
2023-02-08T06:08:05.248Z,1038.12
2023-02-08T06:09:05.177Z,1038.13
2023-02-08T06:10:05.106Z,1038.13
2023-02-08T06:11:05.021Z,1038.19
2023-02-08T06:12:04.952Z,1038.19
2023-02-08T06:13:04.880Z,1038.20
2023-02-08T06:14:04.802Z,1038.24
2023-02-08T06:15:04.727Z,1038.23
2023-02-08T06:16:04.684Z,1038.20
2023-02-08T06:17:04.588Z,1038.17
2023-02-08T06:18:04.520Z,1038.18
2023-02-08T06:19:04.429Z,1038.22
2023-02-08T06:20:04.350Z,1038.21
2023-02-08T06:21:04.288Z,1038.20
2023-02-08T06:22:04.219Z,1038.27
2023-02-08T06:23:04.134Z,1038.28
2023-02-08T06:24:04.116Z,1038.27
2023-02-08T06:25:03.978Z,1038.31
2023-02-08T06:26:03.905Z,1038.23
2023-02-08T06:27:03.834Z,1038.26
2023-02-08T06:28:03.820Z,1038.32
2023-02-08T06:29:03.688Z,1038.33
2023-02-08T06:30:03.602Z,1038.30
2023-02-08T06:31:03.637Z,1038.33
2023-02-08T06:32:03.537Z,1038.32
2023-02-08T06:33:03.387Z,1038.35
2023-02-08T06:34:03.314Z,1038.32
2023-02-08T06:35:03.238Z,1038.31
2023-02-08T06:36:03.177Z,1038.27
2023-02-08T06:37:03.093Z,1038.30
2023-02-08T06:38:03.011Z,1038.29
2023-02-08T06:39:02.939Z,1038.33
2023-02-08T06:40:02.861Z,1038.31
2023-02-08T06:41:02.797Z,1038.31
2023-02-08T06:42:02.712Z,1038.33
2023-02-08T06:43:02.658Z,1038.32
2023-02-08T06:44:02.565Z,1038.35
2023-02-08T06:45:02.493Z,1038.29
2023-02-08T06:46:02.446Z,1038.34
2023-02-08T06:47:02.341Z,1038.31
2023-02-08T06:48:02.271Z,1038.32
2023-02-08T06:49:02.222Z,1038.35
2023-02-08T06:50:02.129Z,1038.38
2023-02-08T06:51:02.055Z,1038.39
2023-02-08T06:52:01.967Z,1038.39
2023-02-08T06:53:01.914Z,1038.42
2023-02-08T06:54:01.827Z,1038.42
2023-02-08T06:55:01.746Z,1038.39
2023-02-08T06:56:01.677Z,1038.38
2023-02-08T06:57:01.598Z,1038.37
2023-02-08T06:58:01.532Z,1038.36
2023-02-08T06:59:01.463Z,1038.38
2023-02-08T07:00:01.382Z,1038.38
2023-02-08T07:01:01.323Z,1038.42
2023-02-08T07:02:01.586Z,1038.37
2023-02-08T07:03:01.150Z,1038.41
2023-02-08T07:04:01.080Z,1038.48
2023-02-08T07:05:01.002Z,1038.43
2023-02-08T07:06:05.453Z,1038.44
2023-02-08T07:07:00.854Z,1038.45
2023-02-08T07:08:00.799Z,1038.43
2023-02-08T07:09:00.705Z,1038.44
2023-02-08T07:10:00.636Z,1038.43
2023-02-08T07:11:00.564Z,1038.43
2023-02-08T07:12:00.494Z,1038.45
2023-02-08T07:13:00.411Z,1038.45
2023-02-08T07:14:00.335Z,1038.44
2023-02-08T07:15:00.280Z,1038.39
2023-02-08T07:16:00.189Z,1038.41
2023-02-08T07:17:00.166Z,1038.35
2023-02-08T07:18:00.058Z,1038.35
2023-02-08T07:18:59.979Z,1038.32
2023-02-08T07:19:59.915Z,1038.40
2023-02-08T07:20:59.818Z,1038.36
2023-02-08T07:21:59.739Z,1038.37
2023-02-08T07:22:59.676Z,1038.41
2023-02-08T07:23:59.595Z,1038.39
2023-02-08T07:24:59.526Z,1038.37
2023-02-08T07:25:59.454Z,1038.42
2023-02-08T07:26:59.383Z,1038.37
2023-02-08T07:27:59.319Z,1038.35
2023-02-08T07:28:59.226Z,1038.37
2023-02-08T07:29:59.154Z,1038.42
2023-02-08T07:30:59.125Z,1038.41
2023-02-08T07:31:59.054Z,1038.43
2023-02-08T07:32:58.929Z,1038.43
2023-02-08T07:33:58.857Z,1038.46
2023-02-08T07:34:58.788Z,1038.45
2023-02-08T07:35:58.712Z,1038.47
2023-02-08T07:36:58.639Z,1038.51
2023-02-08T07:37:58.560Z,1038.53
2023-02-08T07:38:58.500Z,1038.56
2023-02-08T07:39:58.416Z,1038.57
2023-02-08T07:40:58.349Z,1038.61
2023-02-08T07:41:58.272Z,1038.58
2023-02-08T07:42:58.196Z,1038.59
2023-02-08T07:43:58.132Z,1038.59
2023-02-08T07:44:58.053Z,1038.63
2023-02-08T07:45:58.016Z,1038.67
2023-02-08T07:46:57.907Z,1038.68
2023-02-08T07:47:57.831Z,1038.67
2023-02-08T07:48:57.761Z,1038.75
2023-02-08T07:49:57.703Z,1038.74
2023-02-08T07:50:57.628Z,1038.76
2023-02-08T07:51:57.545Z,1038.79
2023-02-08T07:52:57.477Z,1038.80
2023-02-08T07:53:57.412Z,1038.76
2023-02-08T07:54:57.322Z,1038.75
2023-02-08T07:55:57.254Z,1038.81
2023-02-08T07:56:57.181Z,1038.84
2023-02-08T07:57:57.113Z,1038.87
2023-02-08T07:58:57.044Z,1038.82
2023-02-08T07:59:56.958Z,1038.86
2023-02-08T08:00:56.884Z,1038.82
2023-02-08T08:01:56.853Z,1038.85
2023-02-08T08:02:56.746Z,1038.81
2023-02-08T08:03:56.759Z,1038.86
2023-02-08T08:04:56.606Z,1038.92
2023-02-08T08:05:56.525Z,1038.86
2023-02-08T08:06:56.472Z,1038.89
2023-02-08T08:07:56.752Z,1038.93
2023-02-08T08:08:56.312Z,1038.93
2023-02-08T08:09:56.242Z,1038.96
2023-02-08T08:10:56.172Z,1038.97
2023-02-08T08:11:56.108Z,1039.03
2023-02-08T08:12:56.028Z,1039.04
2023-02-08T08:13:55.963Z,1039.04
2023-02-08T08:14:55.892Z,1039.04
2023-02-08T08:15:55.818Z,1039.05
2023-02-08T08:16:55.748Z,1039.03
2023-02-08T08:17:55.680Z,1039.09
2023-02-08T08:18:55.613Z,1039.08
2023-02-08T08:19:55.551Z,1039.08
2023-02-08T08:20:55.470Z,1039.09
2023-02-08T08:21:55.542Z,1039.04
2023-02-08T08:22:55.337Z,1038.99
2023-02-08T08:23:55.291Z,1039.02
2023-02-08T08:24:55.193Z,1039.05
2023-02-08T08:25:55.163Z,1039.02
2023-02-08T08:26:55.058Z,1039.06
2023-02-08T08:27:55.035Z,1039.02
2023-02-08T08:28:54.975Z,1039.06
2023-02-08T08:29:54.848Z,1039.03
2023-02-08T08:30:54.927Z,1039.01
2023-02-08T08:31:54.761Z,1039.05
2023-02-08T08:32:54.657Z,1039.02
2023-02-08T08:33:54.576Z,1039.02
2023-02-08T08:34:54.510Z,1039.03
2023-02-08T08:35:54.445Z,1039.02
2023-02-08T08:36:54.379Z,1039.04
2023-02-08T08:37:54.322Z,1039.04
2023-02-08T08:38:54.327Z,1039.04
2023-02-08T08:39:54.226Z,1039.03
2023-02-08T08:40:54.115Z,1039.00
2023-02-08T08:41:54.038Z,1038.99
2023-02-08T08:42:53.973Z,1038.93
2023-02-08T08:43:53.907Z,1038.96
2023-02-08T08:44:53.830Z,1038.91
2023-02-08T08:45:53.773Z,1038.95
2023-02-08T08:46:53.701Z,1038.89
2023-02-08T08:47:53.636Z,1038.91
2023-02-08T08:48:53.569Z,1038.91
2023-02-08T08:49:53.499Z,1038.92
2023-02-08T08:50:53.439Z,1038.90
2023-02-08T08:51:53.368Z,1038.85
2023-02-08T08:52:53.302Z,1038.83
2023-02-08T08:53:53.232Z,1038.91
2023-02-08T08:54:53.170Z,1038.83
2023-02-08T08:55:53.118Z,1038.89
2023-02-08T08:56:53.045Z,1038.87
2023-02-08T08:57:52.966Z,1038.85
2023-02-08T08:58:52.900Z,1038.89
2023-02-08T08:59:52.831Z,1038.88
2023-02-08T09:00:52.773Z,1038.89
2023-02-08T09:01:52.859Z,1038.88
2023-02-08T09:02:52.668Z,1038.92
2023-02-08T09:03:52.565Z,1038.91
2023-02-08T09:04:52.522Z,1038.85
2023-02-08T09:05:52.434Z,1038.89
2023-02-08T09:06:52.372Z,1038.86
2023-02-08T09:07:52.302Z,1038.90
2023-02-08T09:08:52.292Z,1038.92
2023-02-08T09:09:52.166Z,1038.88
2023-02-08T09:10:52.102Z,1038.93
2023-02-08T09:11:52.032Z,1038.92
2023-02-08T09:12:52.069Z,1038.89
2023-02-08T09:13:51.921Z,1038.86
2023-02-08T09:14:51.839Z,1038.88
2023-02-08T09:15:51.808Z,1038.90
2023-02-08T09:16:51.708Z,1038.87
2023-02-08T09:17:51.643Z,1038.91
2023-02-08T09:18:51.571Z,1038.92
2023-02-08T09:19:51.510Z,1038.91
2023-02-08T09:20:51.443Z,1038.87
2023-02-08T09:21:51.379Z,1038.92
2023-02-08T09:22:51.314Z,1038.92
2023-02-08T09:23:51.273Z,1038.91
2023-02-08T09:24:51.176Z,1038.96
2023-02-08T09:25:51.111Z,1038.94
2023-02-08T09:26:51.074Z,1038.94
2023-02-08T09:27:51.003Z,1039.00
2023-02-08T09:28:50.920Z,1038.98
2023-02-08T09:29:50.862Z,1039.05
2023-02-08T09:30:50.807Z,1039.00
2023-02-08T09:31:50.837Z,1038.95
2023-02-08T09:32:50.655Z,1038.97
2023-02-08T09:33:50.592Z,1039.01
2023-02-08T09:34:50.528Z,1038.96
2023-02-08T09:35:50.468Z,1038.95
2023-02-08T09:36:50.391Z,1038.94
2023-02-08T09:37:50.334Z,1038.90
2023-02-08T09:38:50.277Z,1038.93
2023-02-08T09:39:50.193Z,1038.97
2023-02-08T09:40:50.132Z,1038.90
2023-02-08T09:41:50.066Z,1038.91
2023-02-08T09:42:49.999Z,1038.95
2023-02-08T09:43:49.932Z,1038.87
2023-02-08T09:44:49.922Z,1038.85
2023-02-08T09:45:59.390Z,1038.81
2023-02-08T09:46:49.790Z,1038.76
2023-02-08T09:47:49.673Z,1038.76
2023-02-08T09:48:49.633Z,1038.74
2023-02-08T09:49:49.577Z,1038.78
2023-02-08T09:50:49.558Z,1038.71
2023-02-08T09:51:49.516Z,1038.74
2023-02-08T09:52:49.350Z,1038.72
2023-02-08T09:53:49.289Z,1038.76
2023-02-08T09:54:49.211Z,1038.73
2023-02-08T09:55:49.156Z,1038.74
2023-02-08T09:56:49.078Z,1038.65
2023-02-08T09:57:49.016Z,1038.63
2023-02-08T09:58:48.981Z,1038.59
2023-02-08T09:59:49.818Z,1038.62
2023-02-08T10:00:48.856Z,1038.54
2023-02-08T10:01:48.768Z,1038.59
2023-02-08T10:02:48.683Z,1038.51
2023-02-08T10:03:48.620Z,1038.45
2023-02-08T10:04:48.555Z,1038.46
2023-02-08T10:05:48.497Z,1038.48
2023-02-08T10:06:50.079Z,1038.47
2023-02-08T10:07:48.365Z,1038.45
2023-02-08T10:08:48.290Z,1038.42
2023-02-08T10:09:48.227Z,1038.39
2023-02-08T10:10:48.162Z,1038.46
2023-02-08T10:11:48.097Z,1038.41
2023-02-08T10:12:48.025Z,1038.46
2023-02-08T10:13:48.045Z,1038.44
2023-02-08T10:14:47.889Z,1038.39
2023-02-08T10:15:47.831Z,1038.42
2023-02-08T10:16:47.757Z,1038.38
2023-02-08T10:17:47.700Z,1038.36
2023-02-08T10:18:47.632Z,1038.31
2023-02-08T10:19:47.570Z,1038.28
2023-02-08T10:20:47.504Z,1038.29
2023-02-08T10:21:47.434Z,1038.24
2023-02-08T10:22:47.374Z,1038.24
2023-02-08T10:23:47.316Z,1038.24
2023-02-08T10:24:47.235Z,1038.23
2023-02-08T10:25:47.170Z,1038.24
2023-02-08T10:26:47.176Z,1038.16
2023-02-08T10:27:47.042Z,1038.25
2023-02-08T10:28:46.983Z,1038.20
2023-02-08T10:29:46.921Z,1038.23
2023-02-08T10:30:47.195Z,1038.16
2023-02-08T10:31:46.890Z,1038.17
2023-02-08T10:32:46.733Z,1038.12
2023-02-08T10:33:46.655Z,1038.11
2023-02-08T10:34:46.590Z,1038.10
2023-02-08T10:35:46.520Z,1038.05
2023-02-08T10:36:46.461Z,1038.07
2023-02-08T10:37:46.397Z,1038.03
2023-02-08T10:38:47.244Z,1038.02
2023-02-08T10:39:46.279Z,1038.08
2023-02-08T10:40:46.197Z,1038.14
2023-02-08T10:41:46.157Z,1038.05
2023-02-08T10:42:46.068Z,1038.09
2023-02-08T10:43:46.020Z,1038.14
2023-02-08T10:44:48.151Z,1038.13
2023-02-08T10:45:46.039Z,1038.14
2023-02-08T10:46:45.812Z,1038.05
2023-02-08T10:47:45.744Z,1038.08
2023-02-08T10:48:45.688Z,1038.10
2023-02-08T10:49:45.616Z,1038.07
2023-02-08T10:50:45.548Z,1038.09
2023-02-08T10:51:45.613Z,1038.13
2023-02-08T10:52:45.455Z,1038.10
2023-02-08T10:53:45.393Z,1038.13
2023-02-08T10:54:45.297Z,1038.05
2023-02-08T10:55:45.630Z,1038.04
2023-02-08T10:56:45.160Z,1038.01
2023-02-08T10:57:45.100Z,1038.01
2023-02-08T10:58:45.032Z,1038.06
2023-02-08T10:59:44.965Z,1038.02
2023-02-08T11:00:44.941Z,1038.07
2023-02-08T11:01:44.848Z,1038.05
2023-02-08T11:02:44.772Z,1038.01
2023-02-08T11:03:44.701Z,1038.01
2023-02-08T11:04:44.633Z,1037.98
2023-02-08T11:05:44.794Z,1037.97
2023-02-08T11:06:44.513Z,1038.03
2023-02-08T11:07:44.442Z,1037.99
2023-02-08T11:08:44.373Z,1038.03
2023-02-08T11:09:44.308Z,1038.06
2023-02-08T11:10:44.241Z,1038.11
2023-02-08T11:11:44.178Z,1038.07
2023-02-08T11:12:44.114Z,1038.09
2023-02-08T11:13:44.052Z,1038.19
2023-02-08T11:14:47.426Z,1038.24
2023-02-08T11:15:44.352Z,1038.09
2023-02-08T11:16:43.882Z,1038.06
2023-02-08T11:17:43.792Z,1038.00
2023-02-08T11:18:43.720Z,1038.00
2023-02-08T11:19:43.656Z,1037.99
2023-02-08T11:20:43.593Z,1037.96
2023-02-08T11:21:43.530Z,1037.94
2023-02-08T11:22:43.462Z,1038.02
2023-02-08T11:23:43.428Z,1037.89
2023-02-08T11:24:43.337Z,1037.92
2023-02-08T11:25:43.523Z,1037.92
2023-02-08T11:26:43.206Z,1037.93
2023-02-08T11:27:43.137Z,1037.92
2023-02-08T11:28:43.071Z,1037.99
2023-02-08T11:29:43.007Z,1037.94
2023-02-08T11:30:43.023Z,1037.97
2023-02-08T11:31:42.943Z,1038.03
2023-02-08T11:32:42.814Z,1037.87
2023-02-08T11:33:42.749Z,1037.81
2023-02-08T11:34:42.718Z,1037.81
2023-02-08T11:35:42.955Z,1037.73
2023-02-08T11:36:42.553Z,1037.69
2023-02-08T11:37:42.496Z,1037.68
2023-02-08T11:38:42.434Z,1037.66
2023-02-08T11:39:42.365Z,1037.62
2023-02-08T11:40:42.300Z,1037.62
2023-02-08T11:41:42.237Z,1037.58
2023-02-08T11:42:42.158Z,1037.61
2023-02-08T11:43:42.094Z,1037.53
2023-02-08T11:44:42.043Z,1037.54
2023-02-08T11:45:42.362Z,1037.57
2023-02-08T11:46:41.902Z,1037.58
2023-02-08T11:47:41.840Z,1037.54
2023-02-08T11:48:41.760Z,1037.53
2023-02-08T11:49:41.687Z,1037.54
2023-02-08T11:50:41.631Z,1037.51
2023-02-08T11:51:41.560Z,1037.49
2023-02-08T11:52:41.491Z,1037.46
2023-02-08T11:53:41.505Z,1037.46
2023-02-08T11:54:41.458Z,1037.52
2023-02-08T11:55:41.603Z,1037.49
2023-02-08T11:56:41.215Z,1037.52
2023-02-08T11:57:41.262Z,1037.54
2023-02-08T11:58:41.077Z,1037.57
2023-02-08T11:59:41.018Z,1037.50
2023-02-08T12:00:40.940Z,1037.53
2023-02-08T12:01:40.880Z,1037.50
2023-02-08T12:02:40.917Z,1037.51
2023-02-08T12:03:40.809Z,1037.56
2023-02-08T12:04:40.665Z,1037.60
2023-02-08T12:05:40.715Z,1037.58
2023-02-08T12:06:40.544Z,1037.59